createdAt,value
2022-09-21T00:03:36.280Z,4.53
2022-09-21T00:06:26.079Z,4.30
2022-09-21T00:12:02.254Z,3.37
2022-09-21T00:17:39.133Z,5.53
2022-09-21T00:20:29.007Z,5.87
2022-09-21T00:26:08.078Z,4.07
2022-09-21T00:31:45.672Z,5.63
2022-09-21T00:34:34.206Z,6.10
2022-09-21T00:40:15.447Z,4.77
2022-09-21T00:46:13.529Z,5.73
2022-09-21T00:49:01.985Z,5.17
2022-09-21T00:51:53.199Z,5.57
2022-09-21T00:57:31.813Z,5.37
2022-09-21T01:00:20.305Z,6.27
2022-09-21T01:03:10.855Z,5.10
2022-09-21T01:08:55.304Z,8.80
2022-09-21T01:11:49.072Z,4.27
2022-09-21T01:17:38.544Z,7.43
2022-09-21T01:20:52.841Z,5.40
2022-09-21T01:24:05.177Z,5.57
2022-09-21T01:27:40.145Z,7.33
2022-09-21T01:33:19.905Z,3.50
2022-09-21T01:38:57.660Z,6.77
2022-09-21T01:47:37.925Z,4.27
2022-09-21T01:53:17.813Z,5.57
2022-09-21T01:58:54.677Z,5.53
2022-09-21T02:04:38.870Z,7.53
2022-09-21T02:07:27.041Z,7.07
2022-09-21T02:13:01.160Z,7.80
2022-09-21T02:18:47.666Z,5.63
2022-09-21T02:24:28.515Z,7.20
2022-09-21T02:30:04.301Z,6.73
2022-09-21T02:32:55.647Z,5.80
2022-09-21T02:38:36.032Z,6.63
2022-09-21T02:41:29.971Z,9.20
2022-09-21T02:47:07.095Z,5.33
2022-09-21T02:49:59.245Z,5.57
2022-09-21T02:52:47.897Z,8.90
2022-09-21T02:58:24.461Z,7.17
2022-09-21T03:04:02.294Z,6.03
2022-09-21T03:09:40.224Z,9.90
2022-09-21T03:15:20.051Z,8.67
2022-09-21T03:20:57.381Z,7.87
2022-09-21T03:26:33.425Z,10.37
2022-09-21T03:32:10.979Z,6.27
2022-09-21T03:34:59.597Z,9.73
2022-09-21T03:37:48.080Z,8.03
2022-09-21T03:40:36.604Z,6.73
2022-09-21T03:43:25.723Z,6.13
2022-09-21T03:48:58.763Z,5.53
2022-09-21T03:54:30.260Z,8.17
2022-09-21T03:57:18.852Z,9.20
2022-09-21T04:02:57.491Z,7.70
2022-09-21T04:05:46.661Z,7.47
2022-09-21T04:11:16.367Z,5.73
2022-09-21T04:14:07.579Z,5.10
2022-09-21T04:19:41.993Z,8.87
2022-09-21T04:22:31.382Z,9.57
2022-09-21T04:28:08.260Z,11.33
2022-09-21T04:30:56.435Z,6.17
2022-09-21T04:33:51.895Z,7.03
2022-09-21T04:39:28.661Z,10.13
2022-09-21T04:42:28.262Z,9.90
2022-09-21T04:45:17.022Z,6.60
2022-09-21T04:48:05.976Z,7.27
2022-09-21T04:53:45.144Z,5.73
2022-09-21T04:59:22.404Z,5.93
2022-09-21T05:04:51.196Z,15.00
2022-09-21T05:10:25.308Z,8.40
2022-09-21T05:13:19.127Z,7.37
2022-09-21T05:16:04.310Z,7.80
2022-09-21T05:18:55.735Z,10.20
2022-09-21T05:24:32.050Z,8.47
2022-09-21T05:27:20.654Z,6.73
2022-09-21T05:33:00.250Z,9.83
2022-09-21T05:38:39.581Z,7.87
2022-09-21T05:41:29.072Z,8.80
2022-09-21T05:47:11.589Z,7.97
2022-09-21T05:52:55.450Z,9.27
2022-09-21T05:58:38.101Z,9.10
2022-09-21T06:04:13.136Z,8.20
2022-09-21T06:09:45.860Z,10.70
2022-09-21T06:12:35.143Z,12.23
2022-09-21T06:15:23.363Z,8.70
2022-09-21T06:18:17.496Z,8.30
2022-09-21T06:21:02.901Z,11.53
2022-09-21T06:23:50.884Z,10.73
2022-09-21T06:29:31.036Z,9.93
2022-09-21T06:35:10.183Z,12.83
2022-09-21T06:38:01.823Z,15.50
2022-09-21T06:40:50.356Z,9.07
2022-09-21T06:43:38.950Z,13.77
2022-09-21T06:49:15.771Z,9.40
2022-09-21T06:54:52.551Z,8.70
2022-09-21T07:00:31.291Z,11.43
2022-09-21T07:03:19.783Z,10.20
2022-09-21T07:11:49.681Z,10.90
2022-09-21T07:14:38.598Z,8.10
2022-09-21T07:17:27.438Z,10.23
2022-09-21T07:23:03.933Z,10.43
2022-09-21T07:28:32.269Z,8.83
2022-09-21T07:31:20.770Z,9.37
2022-09-21T07:36:58.847Z,11.83
2022-09-21T07:42:31.836Z,9.73
2022-09-21T07:48:05.946Z,9.33
2022-09-21T07:50:54.750Z,10.63
2022-09-21T07:56:24.569Z,8.73
2022-09-21T07:59:13.575Z,9.13
2022-09-21T08:04:49.192Z,10.33
2022-09-21T08:10:22.810Z,7.47
2022-09-21T08:16:02.992Z,13.80
2022-09-21T08:18:51.339Z,7.97
2022-09-21T08:21:40.030Z,7.53
2022-09-21T08:27:13.544Z,9.80
2022-09-21T08:32:51.586Z,6.30
2022-09-21T08:38:20.226Z,5.80
2022-09-21T08:44:06.265Z,5.90
2022-09-21T08:49:39.735Z,10.27
2022-09-21T08:55:17.366Z,13.33
2022-09-21T09:00:42.914Z,10.97
2022-09-21T09:03:40.626Z,13.80
2022-09-21T09:09:38.038Z,7.70
2022-09-21T09:15:32.483Z,7.40
2022-09-21T09:27:18.165Z,8.37
2022-09-21T09:33:04.507Z,8.57
2022-09-21T09:35:55.992Z,9.63
2022-09-21T09:44:34.378Z,5.83
2022-09-21T09:50:13.116Z,7.37
2022-09-21T09:53:05.507Z,7.50
2022-09-21T10:01:42.761Z,7.93
2022-09-21T10:04:31.703Z,6.17
2022-09-21T10:10:31.801Z,3.33
2022-09-21T10:16:06.580Z,6.43
2022-09-21T10:18:58.965Z,7.20
2022-09-21T10:21:52.005Z,6.10
2022-09-21T10:27:29.726Z,2.67
2022-09-21T10:30:38.677Z,5.97
2022-09-21T10:33:27.987Z,4.70
2022-09-21T10:36:30.818Z,5.87
2022-09-21T10:39:22.399Z,6.70
2022-09-21T10:44:56.682Z,6.33
2022-09-21T10:50:28.839Z,2.50
2022-09-21T10:56:16.114Z,4.63
2022-09-21T11:01:56.192Z,3.30
2022-09-21T11:07:29.546Z,2.57
2022-09-21T11:13:18.612Z,2.07
2022-09-21T11:16:13.478Z,5.07
2022-09-21T11:19:05.380Z,3.77
2022-09-21T11:22:02.291Z,2.50
2022-09-21T11:27:37.368Z,2.93
2022-09-21T11:33:18.867Z,2.00
2022-09-21T11:38:59.940Z,2.90
2022-09-21T11:42:04.851Z,4.80
2022-09-21T11:47:50.580Z,4.20
2022-09-21T11:53:43.078Z,1.97
2022-09-21T12:02:33.799Z,1.93
2022-09-21T12:08:21.750Z,5.77
2022-09-21T12:13:58.163Z,4.03
2022-09-21T12:19:35.466Z,4.43
2022-09-21T12:25:16.881Z,3.90
2022-09-21T12:31:00.445Z,4.67
2022-09-21T12:36:36.980Z,7.27
2022-09-21T12:42:22.528Z,2.53
2022-09-21T12:47:58.682Z,4.03
2022-09-21T12:50:49.042Z,1.87
2022-09-21T12:53:40.049Z,1.63
2022-09-21T12:59:29.484Z,1.90
2022-09-21T13:02:22.268Z,2.13
2022-09-21T13:08:10.024Z,5.47
2022-09-21T13:13:51.293Z,4.70
2022-09-21T13:19:25.944Z,1.10
2022-09-21T13:22:20.104Z,3.30
2022-09-21T13:25:16.895Z,2.20
2022-09-21T13:31:36.770Z,1.90
2022-09-21T13:34:25.329Z,2.50
2022-09-21T13:40:35.711Z,4.27
2022-09-21T13:46:43.342Z,1.87
2022-09-21T13:52:49.154Z,1.47
2022-09-21T13:58:25.261Z,2.27
2022-09-21T14:01:45.598Z,2.67
2022-09-21T14:07:06.696Z,1.67
2022-09-21T14:12:46.221Z,2.00
2022-09-21T14:15:40.938Z,2.20
2022-09-21T14:21:33.419Z,2.73
2022-09-21T14:24:24.195Z,3.77
2022-09-21T14:30:08.236Z,3.67
2022-09-21T14:35:51.228Z,5.60
2022-09-21T14:41:35.290Z,2.03
2022-09-21T14:44:26.469Z,2.63
2022-09-21T14:50:32.622Z,2.80
2022-09-21T14:53:41.933Z,6.87
2022-09-21T14:56:39.562Z,4.40
2022-09-21T14:59:48.414Z,2.83
2022-09-21T15:05:26.411Z,2.67
2022-09-21T15:14:29.490Z,1.80
2022-09-21T15:17:28.593Z,1.57
2022-09-21T15:20:23.517Z,4.63
2022-09-21T15:23:18.719Z,2.37
2022-09-21T15:29:08.861Z,2.23
2022-09-21T15:34:28.158Z,3.47
2022-09-21T15:40:03.339Z,2.20
2022-09-21T15:43:02.245Z,1.27
2022-09-21T15:45:54.972Z,5.23
2022-09-21T15:51:31.765Z,3.03
2022-09-21T15:57:36.221Z,1.57
2022-09-21T16:00:26.381Z,0.73
2022-09-21T16:06:20.993Z,6.67
2022-09-21T16:12:43.666Z,5.17
2022-09-21T16:22:58.703Z,1.60
2022-09-21T16:41:43.273Z,2.17
2022-09-21T16:47:16.863Z,5.07
2022-09-21T16:52:55.061Z,1.67
2022-09-21T16:55:46.329Z,2.20
2022-09-21T17:01:22.394Z,2.90
2022-09-21T17:04:12.349Z,1.17
2022-09-21T17:07:01.070Z,2.17
2022-09-21T17:12:50.962Z,0.90
2022-09-21T17:18:29.069Z,2.07
2022-09-21T17:21:17.587Z,3.80
2022-09-21T17:26:55.910Z,1.93
2022-09-21T17:32:44.621Z,3.23
2022-09-21T17:38:20.830Z,1.90
2022-09-21T17:44:04.050Z,3.40
2022-09-21T17:49:43.152Z,1.87
2022-09-21T17:55:32.213Z,1.13
2022-09-21T18:01:31.060Z,2.80
2022-09-21T18:04:20.217Z,2.13
2022-09-21T18:10:00.339Z,2.90
2022-09-21T18:16:12.670Z,1.63
2022-09-21T18:21:53.549Z,5.33
2022-09-21T18:27:39.153Z,6.17
2022-09-21T18:30:30.674Z,2.73
2022-09-21T18:33:24.198Z,3.43
2022-09-21T18:39:16.808Z,3.23
2022-09-21T18:45:23.431Z,4.03
2022-09-21T18:51:07.470Z,3.27
2022-09-21T18:53:57.642Z,3.23
2022-09-21T18:56:47.046Z,4.27
2022-09-21T19:05:19.730Z,2.13
2022-09-21T19:11:12.366Z,0.93
2022-09-21T19:17:11.027Z,3.60
2022-09-21T19:23:13.847Z,4.40
2022-09-21T19:29:22.835Z,1.73
2022-09-21T19:35:15.445Z,3.17
2022-09-21T19:40:59.951Z,2.13
2022-09-21T19:46:42.549Z,1.73
2022-09-21T19:52:41.523Z,1.53
2022-09-21T19:55:51.899Z,3.93
2022-09-21T20:02:21.330Z,2.37
2022-09-21T20:10:52.490Z,1.97
2022-09-21T20:19:45.489Z,6.33
2022-09-21T20:25:19.230Z,2.83
2022-09-21T20:28:11.704Z,5.13
2022-09-21T20:36:27.784Z,2.00
2022-09-21T20:42:06.006Z,2.13
2022-09-21T20:47:34.070Z,3.23
2022-09-21T20:50:25.764Z,1.80
2022-09-21T20:53:15.603Z,1.43
2022-09-21T20:58:45.838Z,1.37
2022-09-21T21:04:17.599Z,3.07
2022-09-21T21:09:55.558Z,2.50
2022-09-21T21:12:44.520Z,3.97
2022-09-21T21:18:36.265Z,3.03
2022-09-21T21:21:34.739Z,2.23
2022-09-21T21:24:42.136Z,1.83
2022-09-21T21:30:18.603Z,2.83
2022-09-21T21:35:46.820Z,1.90
2022-09-21T21:41:24.784Z,5.43
2022-09-21T21:44:14.997Z,2.80
2022-09-21T21:47:21.277Z,2.57
2022-09-21T21:52:45.359Z,1.47
2022-09-21T21:55:41.568Z,3.57
2022-09-21T21:58:31.700Z,2.60
2022-09-21T22:01:23.966Z,1.30
2022-09-21T22:06:52.754Z,3.20
2022-09-21T22:12:31.746Z,1.50
2022-09-21T22:18:01.976Z,4.27
2022-09-21T22:20:50.538Z,3.17
2022-09-21T22:23:38.983Z,2.70
2022-09-21T22:26:28.954Z,4.70
2022-09-21T22:31:58.645Z,3.03
2022-09-21T22:34:49.467Z,1.50
2022-09-21T22:37:38.844Z,3.30
2022-09-21T22:43:09.416Z,1.13
2022-09-21T22:45:58.221Z,1.27
2022-09-21T22:48:47.435Z,3.33
2022-09-21T22:54:31.780Z,2.87
2022-09-21T23:00:04.927Z,3.67
2022-09-21T23:08:42.676Z,2.80
2022-09-21T23:14:20.779Z,2.20
2022-09-21T23:19:55.266Z,2.87
2022-09-21T23:25:32.243Z,1.70
2022-09-21T23:28:20.895Z,2.33
2022-09-21T23:31:13.624Z,3.37
2022-09-21T23:34:07.212Z,1.87
2022-09-21T23:39:43.144Z,3.17
2022-09-21T23:45:19.486Z,1.53
2022-09-21T23:48:08.546Z,3.43
2022-09-21T23:53:49.898Z,2.27
2022-09-21T23:56:38.213Z,2.43
